Chattanooga, TN

5:28 AM EDT on July 29, 2016 (GMT -0400)
Coolidge Park | | Change Station

Elev 673 ft 35.06 °N, 85.31 °W | Updated 8 seconds ago

Overcast
Overcast
72.5 °F
Feels Like 72.5 °F
N
1.1
Wind Variable Wind from NW
Gusts 2.5 mph

Today
High -- | Low -- °F
--% Chance of Precip.
Yesterday
High -- | Low -- °F
Precip. -- in
Pressure 29.97 in
Visibility 10.0 miles
Clouds Overcast 1900 ft
Dew Point 70 °F
Humidity 91%
Rainfall 0.00 in
Snow Depth Not available.
6:48 AM 8:46 PM
Waning Crescent, 23% visible
METAR KCHA 290853Z AUTO 21004KT 10SM OVC019 24/22 A3000 RMK AO2 SLP149 T02440217 50002 $
Pressure 29.97 in
Visibility 10.0 miles
Clouds Overcast 1900 ft
Dew Point 70 °F
Humidity 91%
Rainfall 0.00 in
Snow Depth Not available.
6:48 AM 8:46 PM
Waning Crescent, 23% visible
METAR KCHA 290853Z AUTO 21004KT 10SM OVC019 24/22 A3000 RMK AO2 SLP149 T02440217 50002 $

10-Day Weather Forecast

Almanac

Astronomy

Jul. 29, 2016 Rise Set
Actual Time
Civil Twilight
Nautical Twilight
Astronomical Twilight
Moon
Length of Visible Light
Length of Day
Tomorrow will be .
, % of the Moon is Illuminated

Today's Extremes

State Highs State Lows

Community

WunderPhotos

Upload Photos

1,928,300 photos uploaded!

WunderBlog® & News

Nearby

Air Quality

  Air Quality AQ Index Pollutant
Not available.

Snow Depth

Station Depth Elevation

Earthquake Activity

City Distance Mag. Time & Date
Minimum magnitude displayed is 2.5.

Coastal Water Temperatures

Place Temperature

Stations

Nearby Weather Stations

Station Location Temp. Windchill Dew Point Humidity Wind Precip. Elev Updated Type
                   

Watches & Warnings

There are currently no watches in effect.